Katherine, Northern Territory

8:16 PM ACST on August 27, 2016 (GMT +0930)
INTKATHE2 | | Change Station

Elev 364 ft 14.47 °S, 132.26 °E | Updated 0 second ago

Clear
Clear
72.0 °F
Feels Like 77 °F
N
0.0
Wind Variable Wind from East
Gusts 0.0 mph

Today
High -- | Low -- °F
--% Chance of Precip.
Yesterday
High -- | Low -- °F
Precip. -- in
Pressure 29.98 in
Visibility 6.2 miles
Clouds
Heat Index 77 °F
Dew Point 42 °F
Humidity 34%
Rainfall 0.00 in
Snow Depth Not available.
6:49 AM 6:35 PM
Waning Crescent, 25% visible
METAR YPTN 271030Z AUTO 00000KT 9999 // NCD 21/04 Q1015
Pressure 29.98 in
Visibility 6.2 miles
Clouds
Heat Index 77 °F
Dew Point 42 °F
Humidity 34%
Rainfall 0.00 in
Snow Depth Not available.
6:49 AM 6:35 PM
Waning Crescent, 25% visible
METAR YPTN 271030Z AUTO 00000KT 9999 // NCD 21/04 Q1015

10-Day Weather Forecast

Almanac

Astronomy

Aug. 27, 2016 Rise Set
Actual Time
Civil Twilight
Nautical Twilight
Astronomical Twilight
Moon
Length of Visible Light
Length of Day
Tomorrow will be .
, % of the Moon is Illuminated

Today's Extremes

Country Highs Country Lows

Community

WunderPhotos

Upload Photos

1,935,321 photos uploaded!

WunderBlog® & News

Nearby

Air Quality

  Air Quality AQ Index Pollutant
Not available.

Snow Depth

Station Depth Elevation

Earthquake Activity

City Distance Mag. Time & Date
Minimum magnitude displayed is 2.5.

Coastal Water Temperatures

Place Temperature

Stations

Nearby Weather Stations

Station Location Temp. Windchill Dew Point Humidity Wind Precip. Elev Updated Type